Time;durP1;ratioP1;P1;durP2;ratioP2;P2;SDS_P1;SDS_P2;PMS_P1;PMS_P2;Temp;Humidity;BMP_temperature;BMP_pressure;BME280_temperature;BME280_humidity;BME280_pressure;Samples;Min_cycle;Max_cycle;Signal;HPM_P1;HPM_P2
2022/12/10 00:01:22;;;;;;;41.85;24.52;;;8.30;99.90;;;;;;5068926;28;20021;-77
2022/12/10 00:03:47;;;;;;;35.67;23.35;;;8.40;99.90;;;;;;5073919;28;20020;-76
2022/12/10 00:06:19;;;;;;;35.72;25.10;;;8.30;99.90;;;;;;5069947;28;20065;-75
2022/12/10 00:08:45;;;;;;;35.45;21.52;;;8.30;99.90;;;;;;5076562;28;20051;-77
2022/12/10 00:11:13;;;;;;;30.48;20.77;;;8.20;99.90;;;;;;5071856;28;20032;-77
2022/12/10 00:13:40;;;;;;;33.80;21.08;;;8.20;99.90;;;;;;5077956;28;20024;-77
2022/12/10 00:16:08;;;;;;;27.48;16.25;;;8.20;99.90;;;;;;5073400;28;20100;-77
2022/12/10 00:18:35;;;;;;;35.05;22.80;;;8.20;99.90;;;;;;5076900;28;20086;-77
2022/12/10 00:21:06;;;;;;;38.97;24.77;;;8.10;99.90;;;;;;5076028;28;20443;-77
2022/12/10 00:23:32;;;;;;;;;;;8.10;99.90;;;;;;5075132;28;20075;-77
2022/12/10 00:26:13;;;;;;;37.50;24.17;;;8.10;99.90;;;;;;5074467;28;19924;-76
2022/12/10 00:28:40;;;;;;;39.50;27.15;;;8.10;99.90;;;;;;5086794;28;20036;-77
2022/12/10 00:31:13;;;;;;;48.70;29.70;;;8.00;99.90;;;;;;5070358;28;20032;-76
2022/12/10 00:33:39;;;;;;;43.70;27.35;;;8.10;99.90;;;;;;5073181;28;20017;-78
2022/12/10 00:36:08;;;;;;;42.00;23.70;;;8.00;99.90;;;;;;5077321;28;20033;-77
2022/12/10 00:38:35;;;;;;;40.50;24.40;;;8.00;99.90;;;;;;5071967;28;20370;-77
2022/12/10 00:41:00;;;;;;;43.47;27.80;;;7.90;99.90;;;;;;5075750;28;20039;-77
2022/12/10 00:43:27;;;;;;;41.03;26.75;;;7.90;99.90;;;;;;5072716;28;20012;-76
2022/12/10 00:45:53;;;;;;;43.10;23.65;;;7.90;99.90;;;;;;5064535;28;20071;-78
2022/12/10 00:48:20;;;;;;;41.85;27.27;;;7.80;99.90;;;;;;5072762;28;20028;-77
2022/12/10 00:51:02;;;;;;;41.65;27.10;;;7.80;99.90;;;;;;5065730;28;20063;-77
2022/12/10 00:53:29;;;;;;;48.17;29.05;;;7.80;99.90;;;;;;5073014;28;20025;-78
2022/12/10 00:55:56;;;;;;;42.88;22.85;;;7.80;99.90;;;;;;5063217;28;20056;-78
2022/12/10 00:58:22;;;;;;;47.88;28.48;;;7.70;99.90;;;;;;5068174;28;20029;-80
2022/12/10 01:00:48;;;;;;;51.47;29.35;;;7.60;99.90;;;;;;5061434;28;20021;-78
2022/12/10 01:03:14;;;;;;;52.45;29.92;;;7.50;99.90;;;;;;5071966;28;20031;-78
2022/12/10 01:05:40;;;;;;;41.45;24.38;;;7.40;99.90;;;;;;5073299;28;20028;-78
2022/12/10 01:08:06;;;;;;;50.55;31.33;;;7.30;99.90;;;;;;5070726;28;20066;-77
2022/12/10 01:10:32;;;;;;;52.72;31.25;;;7.30;99.90;;;;;;5073960;28;20436;-77
2022/12/10 01:12:58;;;;;;;48.50;30.48;;;7.20;99.90;;;;;;5065611;28;20466;-77
2022/12/10 01:15:23;;;;;;;45.33;22.90;;;7.20;99.90;;;;;;5064481;28;20029;-78
2022/12/10 01:17:49;;;;;;;34.67;20.38;;;7.10;99.90;;;;;;5070045;28;20021;-77
2022/12/10 01:20:15;;;;;;;37.28;23.27;;;7.00;99.90;;;;;;5071671;28;20029;-77
2022/12/10 01:22:41;;;;;;;42.53;27.38;;;7.00;99.90;;;;;;5066187;28;20100;-77
2022/12/10 01:25:08;;;;;;;38.42;24.38;;;7.00;99.90;;;;;;5078015;28;20455;-78
2022/12/10 01:27:33;;;;;;;39.80;26.42;;;7.00;99.90;;;;;;5065255;28;20021;-78
2022/12/10 01:29:59;;;;;;;41.25;25.25;;;7.00;99.90;;;;;;5077105;28;20469;-78
2022/12/10 01:32:25;;;;;;;37.05;24.50;;;6.90;99.90;;;;;;5065420;28;20033;-77
2022/12/10 01:34:51;;;;;;;38.75;23.50;;;6.90;99.90;;;;;;5065783;28;20040;-78
2022/12/10 01:37:17;;;;;;;39.83;23.65;;;6.80;99.90;;;;;;5066439;28;20103;-78
2022/12/10 01:39:42;;;;;;;38.65;23.75;;;6.80;99.90;;;;;;5069685;28;20389;-77
2022/12/10 01:42:13;;;;;;;40.38;22.23;;;6.80;99.90;;;;;;5066817;28;20025;-77
2022/12/10 01:44:42;;;;;;;45.75;27.73;;;6.70;99.90;;;;;;5071104;28;20100;-79
2022/12/10 01:47:09;;;;;;;45.10;28.55;;;6.70;99.90;;;;;;5068166;28;20108;-78
2022/12/10 01:49:38;;;;;;;46.90;25.95;;;6.70;99.90;;;;;;5069700;28;20095;-77
2022/12/10 01:52:06;;;;;;;44.55;27.75;;;6.70;99.90;;;;;;5068893;28;20028;-80
2022/12/10 01:54:38;;;;;;;44.63;29.85;;;6.60;99.90;;;;;;5073831;28;20055;-78
2022/12/10 01:57:11;;;;;;;33.63;21.15;;;6.60;99.90;;;;;;5067062;28;20024;-78
2022/12/10 01:59:38;;;;;;;37.45;25.80;;;6.60;99.90;;;;;;5076491;28;20028;-78
2022/12/10 02:02:25;;;;;;;40.08;26.65;;;6.50;99.90;;;;;;5063013;28;20025;-78
2022/12/10 02:04:56;;;;;;;38.00;27.33;;;6.50;99.90;;;;;;5070400;28;20468;-77
2022/12/10 02:07:31;;;;;;;40.78;26.15;;;6.40;99.90;;;;;;5070937;28;20028;-78
2022/12/10 02:10:38;;;;;;;40.22;26.77;;;6.40;99.90;;;;;;5072544;28;20029;-78
2022/12/10 02:13:18;;;;;;;41.35;26.80;;;6.30;99.90;;;;;;5071590;28;20078;-77
2022/12/10 02:15:57;;;;;;;41.95;29.08;;;6.20;99.90;;;;;;5071121;28;20100;-78
2022/12/10 02:18:43;;;;;;;40.78;27.50;;;6.20;99.90;;;;;;5071051;28;20392;-76
2022/12/10 02:21:21;;;;;;;39.78;28.23;;;6.20;99.90;;;;;;5070905;28;20036;-77
2022/12/10 02:23:59;;;;;;;42.65;28.30;;;6.20;99.90;;;;;;5068050;28;20069;-76
2022/12/10 02:26:34;;;;;;;40.33;25.60;;;6.10;99.90;;;;;;5062777;28;20045;-78
2022/12/10 02:29:17;;;;;;;40.05;27.02;;;6.10;99.90;;;;;;5068221;28;20451;-77
2022/12/10 02:32:20;;;;;;;41.05;27.35;;;6.10;99.90;;;;;;5070482;28;20029;-77
2022/12/10 02:34:51;;;;;;;44.85;28.83;;;6.10;99.90;;;;;;5052125;28;20039;-76
2022/12/10 02:37:23;;;;;;;42.60;27.17;;;6.10;99.90;;;;;;5065607;28;20051;-80
2022/12/10 02:39:53;;;;;;;38.40;25.98;;;6.00;99.90;;;;;;5066388;28;20040;-77
2022/12/10 02:42:21;;;;;;;39.03;25.80;;;5.90;99.90;;;;;;5065792;28;20046;-77
2022/12/10 02:44:49;;;;;;;38.42;25.15;;;5.90;99.90;;;;;;5065584;28;20064;-77
2022/12/10 02:47:18;;;;;;;30.08;20.25;;;5.90;99.90;;;;;;5065462;28;20028;-77
2022/12/10 02:49:47;;;;;;;35.58;24.00;;;5.80;99.90;;;;;;5070251;28;20032;-79
2022/12/10 02:52:17;;;;;;;37.30;24.45;;;5.80;99.90;;;;;;5064950;28;20025;-77
2022/12/10 02:54:45;;;;;;;36.57;25.07;;;5.70;99.90;;;;;;5071539;28;20024;-77
2022/12/10 02:57:30;;;;;;;39.00;25.65;;;5.80;99.90;;;;;;5065701;28;20505;-78
2022/12/10 03:00:16;;;;;;;39.58;27.98;;;5.70;99.90;;;;;;5064726;28;20025;-78
2022/12/10 03:02:56;;;;;;;36.35;26.13;;;5.70;99.90;;;;;;5069640;28;20021;-78
2022/12/10 03:05:31;;;;;;;;;;;5.70;99.90;;;;;;5062757;28;20020;-78
2022/12/10 03:08:08;;;;;;;38.53;25.02;;;5.70;99.90;;;;;;5064778;28;19916;-79
2022/12/10 03:10:43;;;;;;;36.75;26.20;;;5.70;99.90;;;;;;5072154;28;20023;-78
2022/12/10 03:13:12;;;;;;;35.22;24.17;;;5.60;99.90;;;;;;5066854;28;20060;-78
2022/12/10 03:15:41;;;;;;;38.88;26.63;;;5.60;99.90;;;;;;5064345;28;20021;-78
2022/12/10 03:18:08;;;;;;;35.15;22.92;;;5.60;99.90;;;;;;5066635;28;20111;-79
2022/12/10 03:20:38;;;;;;;35.15;22.27;;;5.60;99.90;;;;;;5075864;28;20020;-78
2022/12/10 03:23:08;;;;;;;36.25;25.73;;;5.60;99.90;;;;;;5065811;28;20020;-78
2022/12/10 03:25:36;;;;;;;38.10;24.48;;;5.60;99.90;;;;;;5073555;28;20045;-78
2022/12/10 03:28:02;;;;;;;36.35;22.73;;;5.60;99.90;;;;;;5066481;28;20576;-78
2022/12/10 03:30:32;;;;;;;34.38;24.42;;;5.60;99.90;;;;;;5071876;28;20039;-78
2022/12/10 03:32:58;;;;;;;32.50;24.07;;;5.50;99.90;;;;;;5063773;28;20033;-80
2022/12/10 03:35:24;;;;;;;21.83;15.50;;;5.50;99.90;;;;;;5068331;28;20484;-79
2022/12/10 03:37:51;;;;;;;21.70;15.32;;;5.40;99.90;;;;;;5063168;28;20087;-78
2022/12/10 03:40:22;;;;;;;34.92;21.88;;;5.40;99.90;;;;;;5064473;28;20012;-78
2022/12/10 03:42:48;;;;;;;32.72;21.92;;;5.30;99.90;;;;;;5065904;28;20108;-77
2022/12/10 03:45:14;;;;;;;29.70;19.15;;;5.20;99.90;;;;;;5065678;28;20045;-77
2022/12/10 03:47:40;;;;;;;35.78;24.20;;;5.20;99.90;;;;;;5060538;28;20033;-78
2022/12/10 03:50:06;;;;;;;35.28;22.77;;;5.10;99.90;;;;;;5062721;28;20476;-78
2022/12/10 03:52:33;;;;;;;33.08;23.25;;;5.10;99.90;;;;;;5059665;28;21330;-78
2022/12/10 03:54:58;;;;;;;33.58;23.75;;;5.10;99.90;;;;;;5060839;28;20059;-78
2022/12/10 03:57:24;;;;;;;39.45;24.70;;;5.00;99.90;;;;;;5067759;28;20021;-78
2022/12/10 03:59:50;;;;;;;33.97;23.50;;;5.00;99.90;;;;;;5062559;28;20435;-77
2022/12/10 04:02:16;;;;;;;32.13;21.85;;;4.90;99.90;;;;;;5069581;28;20024;-77
2022/12/10 04:04:42;;;;;;;36.78;24.70;;;4.90;99.90;;;;;;5061877;28;20017;-78
2022/12/10 04:07:08;;;;;;;36.88;23.20;;;4.90;99.90;;;;;;5063383;28;20512;-79
2022/12/10 04:09:34;;;;;;;35.50;24.58;;;4.90;99.90;;;;;;5073552;28;20023;-78
2022/12/10 04:12:00;;;;;;;30.13;22.83;;;4.90;99.90;;;;;;5060279;28;20033;-78
2022/12/10 04:17:12;;;;;;;34.15;22.15;;;4.80;99.90;;;;;;5069523;28;20040;-78
2022/12/10 04:19:38;;;;;;;33.55;22.80;;;4.80;99.90;;;;;;5074914;28;20017;-80
2022/12/10 04:27:36;;;;;;;32.63;21.08;;;4.70;99.90;;;;;;5069788;28;20037;-77
2022/12/10 04:30:05;;;;;;;26.83;19.92;;;4.60;99.90;;;;;;5074740;28;20044;-79
2022/12/10 04:32:31;;;;;;;27.33;17.63;;;4.50;99.90;;;;;;5070350;28;20037;-77
2022/12/10 04:34:57;;;;;;;30.83;21.02;;;4.50;99.90;;;;;;5072725;28;20082;-77
2022/12/10 04:37:23;;;;;;;30.27;21.58;;;4.40;99.90;;;;;;5069605;28;20033;-78
2022/12/10 04:39:50;;;;;;;30.80;20.77;;;4.40;99.90;;;;;;5071314;28;20381;-79
2022/12/10 04:42:17;;;;;;;27.48;20.70;;;4.30;99.90;;;;;;5068441;28;20485;-79
2022/12/10 04:44:43;;;;;;;29.05;20.10;;;4.30;99.90;;;;;;5071362;28;20021;-79
2022/12/10 04:47:10;;;;;;;30.15;20.23;;;4.20;99.90;;;;;;5065387;28;20096;-78
2022/12/10 04:49:37;;;;;;;27.13;21.38;;;4.20;99.90;;;;;;5076521;28;20481;-78
2022/12/10 04:52:05;;;;;;;28.88;20.60;;;4.20;99.90;;;;;;5068365;28;20694;-78
2022/12/10 04:54:30;;;;;;;27.55;19.02;;;4.20;99.90;;;;;;5073997;28;20055;-79
2022/12/10 04:56:56;;;;;;;29.27;19.30;;;4.20;99.90;;;;;;5070451;28;20064;-79
2022/12/10 04:59:23;;;;;;;30.27;21.08;;;4.10;99.90;;;;;;5068563;28;20074;-78
2022/12/10 05:01:49;;;;;;;29.50;20.75;;;4.10;99.90;;;;;;5064654;28;20021;-77
2022/12/10 05:04:17;;;;;;;29.80;20.80;;;4.20;99.90;;;;;;5076002;28;20100;-78
2022/12/10 05:06:44;;;;;;;29.00;19.27;;;4.10;99.90;;;;;;5066775;28;20039;-78
2022/12/10 05:09:13;;;;;;;26.75;18.60;;;4.10;99.90;;;;;;5074329;28;20031;-78
2022/12/10 05:11:40;;;;;;;26.98;18.48;;;4.00;99.90;;;;;;5069679;28;20099;-79
2022/12/10 05:14:06;;;;;;;24.50;18.40;;;4.00;99.90;;;;;;5073636;28;20024;-78
2022/12/10 05:16:33;;;;;;;24.60;18.15;;;4.00;99.90;;;;;;5065711;28;20028;-78
2022/12/10 05:18:59;;;;;;;27.48;19.35;;;3.90;99.90;;;;;;5072414;28;20032;-78
2022/12/10 05:24:12;;;;;;;24.80;18.10;;;3.80;99.90;;;;;;5071858;28;20043;-78
2022/12/10 05:26:38;;;;;;;24.98;19.35;;;3.80;99.90;;;;;;5071399;28;20194;-78
2022/12/10 05:29:04;;;;;;;24.85;19.23;;;3.80;99.90;;;;;;5072410;28;20024;-78
2022/12/10 05:31:30;;;;;;;21.17;15.93;;;3.70;99.90;;;;;;5066277;28;20056;-81
2022/12/10 05:33:57;;;;;;;24.42;17.17;;;3.60;99.90;;;;;;5073115;28;20032;-77
2022/12/10 05:36:26;;;;;;;26.02;14.48;;;3.50;99.90;;;;;;5066333;28;20445;-77
2022/12/10 05:38:54;;;;;;;25.25;18.42;;;3.40;99.90;;;;;;5073534;28;20020;-78
2022/12/10 05:41:22;;;;;;;25.88;17.98;;;3.40;99.90;;;;;;5064032;28;20021;-78
2022/12/10 05:43:48;;;;;;;27.42;18.65;;;3.40;99.90;;;;;;5073253;28;20045;-80
2022/12/10 05:46:22;;;;;;;30.05;13.15;;;3.40;99.90;;;;;;5062725;28;20025;-78
2022/12/10 05:48:49;;;;;;;18.92;14.82;;;3.20;99.90;;;;;;5070793;28;20093;-79
2022/12/10 05:51:18;;;;;;;26.23;17.27;;;3.10;99.90;;;;;;5063605;28;20504;-78
2022/12/10 05:53:44;;;;;;;21.52;14.88;;;3.00;99.90;;;;;;5065626;28;20099;-76
2022/12/10 05:56:18;;;;;;;16.02;11.48;;;2.90;99.90;;;;;;5075528;28;20024;-78
2022/12/10 05:58:46;;;;;;;17.33;12.05;;;2.90;99.90;;;;;;5070029;28;20108;-79
2022/12/10 06:01:18;;;;;;;21.30;13.55;;;2.80;99.90;;;;;;5072488;28;20914;-77
2022/12/10 06:03:44;;;;;;;18.30;12.35;;;2.80;99.90;;;;;;5068202;28;20021;-77
2022/12/10 06:06:10;;;;;;;22.95;16.40;;;2.70;99.90;;;;;;5070594;28;20025;-78
2022/12/10 06:08:37;;;;;;;24.95;17.08;;;2.60;99.90;;;;;;5070980;28;20024;-78
2022/12/10 06:11:04;;;;;;;19.45;13.57;;;2.60;99.90;;;;;;5071069;28;20086;-77
2022/12/10 06:13:30;;;;;;;20.58;15.55;;;2.60;99.90;;;;;;5071621;28;20029;-77
2022/12/10 06:15:56;;;;;;;21.17;15.68;;;2.60;99.90;;;;;;5066263;28;20033;-79
2022/12/10 06:18:22;;;;;;;21.55;15.38;;;2.60;99.90;;;;;;5071700;28;20088;-78
2022/12/10 06:20:48;;;;;;;24.17;17.05;;;2.50;99.90;;;;;;5075823;28;20036;-78
2022/12/10 06:23:14;;;;;;;23.50;15.27;;;2.40;99.90;;;;;;5061360;28;20021;-77
2022/12/10 06:25:41;;;;;;;21.67;15.40;;;2.40;99.90;;;;;;5066895;28;20505;-77
2022/12/10 06:28:07;;;;;;;19.92;15.98;;;2.40;99.90;;;;;;5068222;28;20025;-77
2022/12/10 06:30:35;;;;;;;26.75;18.58;;;2.30;99.90;;;;;;5068862;28;20049;-78
2022/12/10 06:33:01;;;;;;;27.10;17.35;;;2.30;99.90;;;;;;5063811;28;20058;-77
2022/12/10 06:35:27;;;;;;;21.55;15.15;;;2.20;99.90;;;;;;5069706;28;20024;-77
2022/12/10 06:37:52;;;;;;;17.80;13.30;;;2.20;99.90;;;;;;5067734;28;20421;-78
2022/12/10 06:40:19;;;;;;;21.17;14.70;;;2.10;99.90;;;;;;5068479;28;20365;-79
2022/12/10 06:42:45;;;;;;;24.25;18.52;;;2.10;99.90;;;;;;5064024;28;20481;-77
2022/12/10 06:45:12;;;;;;;32.83;18.27;;;2.10;99.90;;;;;;5062095;28;20029;-77
2022/12/10 06:47:38;;;;;;;26.85;20.35;;;2.10;99.90;;;;;;5065926;28;20048;-78
2022/12/10 06:50:04;;;;;;;24.35;18.38;;;2.10;99.90;;;;;;5064739;28;20029;-77
2022/12/10 06:52:30;;;;;;;20.75;14.90;;;2.10;99.90;;;;;;5060411;28;20074;-78
2022/12/10 06:54:56;;;;;;;23.20;16.45;;;2.00;99.90;;;;;;5072438;28;20036;-78
2022/12/10 06:57:22;;;;;;;22.67;16.33;;;2.00;99.90;;;;;;5070170;28;20365;-78
2022/12/10 06:59:48;;;;;;;26.80;18.67;;;2.10;99.90;;;;;;5073086;28;20021;-78
2022/12/10 07:02:13;;;;;;;24.75;17.02;;;2.00;99.90;;;;;;5063896;28;20051;-78
2022/12/10 07:04:39;;;;;;;22.95;16.00;;;2.00;99.90;;;;;;5074522;28;20062;-77
2022/12/10 07:07:06;;;;;;;23.60;18.52;;;2.00;99.90;;;;;;5064750;28;20052;-76
2022/12/10 07:09:33;;;;;;;27.80;19.13;;;2.00;99.90;;;;;;5069419;28;20021;-78
2022/12/10 07:11:59;;;;;;;28.27;18.42;;;2.00;99.90;;;;;;5068199;28;20035;-77
2022/12/10 07:14:25;;;;;;;28.88;17.05;;;2.00;99.90;;;;;;5073017;28;20115;-77
2022/12/10 07:16:51;;;;;;;23.13;13.57;;;2.00;99.90;;;;;;5068795;28;20028;-76
2022/12/10 07:19:18;;;;;;;19.55;12.15;;;2.00;99.90;;;;;;5074522;28;20038;-78
2022/12/10 07:21:45;;;;;;;27.77;16.23;;;2.00;99.90;;;;;;5072065;28;20071;-77
2022/12/10 07:24:15;;;;;;;25.35;16.02;;;2.00;99.90;;;;;;5058910;28;20028;-77
2022/12/10 07:26:43;;;;;;;26.98;17.27;;;2.00;99.90;;;;;;5069682;28;20033;-78
2022/12/10 07:29:20;;;;;;;25.10;17.85;;;1.90;99.90;;;;;;5070497;28;20016;-78
2022/12/10 07:31:47;;;;;;;22.80;16.50;;;1.90;99.90;;;;;;5068128;28;20025;-77
2022/12/10 07:34:14;;;;;;;26.95;18.67;;;1.90;99.90;;;;;;5065525;28;20426;-78
2022/12/10 07:36:40;;;;;;;23.73;18.08;;;1.90;99.90;;;;;;5059620;28;20021;-78
2022/12/10 07:39:08;;;;;;;22.40;16.88;;;1.90;99.90;;;;;;5070792;28;20043;-79
2022/12/10 07:41:35;;;;;;;22.42;15.88;;;1.90;99.90;;;;;;5069593;28;20115;-78
2022/12/10 07:44:03;;;;;;;23.27;17.23;;;2.00;99.90;;;;;;5072819;28;20025;-78
2022/12/10 07:46:31;;;;;;;22.85;14.27;;;2.00;99.90;;;;;;5070467;28;20404;-78
2022/12/10 07:48:59;;;;;;;22.02;17.20;;;2.00;99.90;;;;;;5064793;28;20052;-77
2022/12/10 07:51:25;;;;;;;27.25;17.30;;;2.00;99.90;;;;;;5069012;28;20021;-78
2022/12/10 07:53:52;;;;;;;22.08;16.67;;;2.00;99.90;;;;;;5064411;28;20033;-78
2022/12/10 07:56:19;;;;;;;18.10;11.68;;;2.00;99.90;;;;;;5073701;28;20074;-78
2022/12/10 07:58:45;;;;;;;20.70;14.35;;;2.00;99.90;;;;;;5065453;28;20035;-77
2022/12/10 08:01:22;;;;;;;20.95;15.43;;;2.00;99.90;;;;;;5059977;28;20051;-78
2022/12/10 08:03:48;;;;;;;24.25;16.33;;;2.10;99.90;;;;;;5069372;28;20017;-77
2022/12/10 08:06:16;;;;;;;19.60;15.10;;;2.00;99.90;;;;;;5062589;28;20401;-77
2022/12/10 08:08:44;;;;;;;23.52;18.02;;;2.00;99.90;;;;;;5075581;28;20021;-78
2022/12/10 08:11:10;;;;;;;16.85;13.32;;;2.00;99.90;;;;;;5075784;28;20024;-78
2022/12/10 08:13:37;;;;;;;18.75;14.50;;;2.00;99.90;;;;;;5064045;28;20033;-78
2022/12/10 08:16:07;;;;;;;20.20;15.15;;;1.90;99.90;;;;;;5073676;28;20146;-78
2022/12/10 08:18:34;;;;;;;16.53;13.30;;;1.90;99.90;;;;;;5065835;28;20104;-78
2022/12/10 08:21:07;;;;;;;20.48;14.23;;;1.90;99.90;;;;;;5070148;28;20097;-76
2022/12/10 08:23:34;;;;;;;16.88;11.43;;;1.90;99.90;;;;;;5066913;28;20020;-77
2022/12/10 08:26:05;;;;;;;13.70;11.75;;;1.80;99.90;;;;;;5071652;28;20059;-76
2022/12/10 08:28:30;;;;;;;20.00;16.38;;;1.80;99.90;;;;;;5064825;28;20039;-77
2022/12/10 08:30:56;;;;;;;18.73;15.13;;;1.80;99.90;;;;;;5074100;28;20024;-78
2022/12/10 08:33:22;;;;;;;21.02;14.45;;;1.80;99.90;;;;;;5074023;28;20025;-76
2022/12/10 08:35:48;;;;;;;23.50;16.23;;;1.80;99.90;;;;;;5077667;28;20021;-76
2022/12/10 08:38:14;;;;;;;19.52;15.05;;;1.80;99.90;;;;;;5074670;28;20032;-78
2022/12/10 08:40:41;;;;;;;25.90;16.98;;;1.90;99.90;;;;;;5075638;28;20392;-77
2022/12/10 08:43:07;;;;;;;21.10;13.55;;;1.90;99.90;;;;;;5063363;28;20464;-77
2022/12/10 08:45:32;;;;;;;17.90;13.57;;;1.80;99.90;;;;;;5077081;28;20036;-77
2022/12/10 08:48:00;;;;;;;20.33;14.20;;;1.80;99.90;;;;;;5071948;28;20107;-76
2022/12/10 08:50:26;;;;;;;17.52;14.00;;;1.80;99.90;;;;;;5075449;28;20047;-76
2022/12/10 08:52:52;;;;;;;16.73;13.57;;;1.80;99.90;;;;;;5062835;28;20029;-77
2022/12/10 08:55:17;;;;;;;20.83;14.13;;;1.70;99.90;;;;;;5071651;28;20050;-79
2022/12/10 08:57:43;;;;;;;24.02;16.20;;;1.70;99.90;;;;;;5068613;28;20037;-76
2022/12/10 09:00:10;;;;;;;23.33;16.10;;;1.70;99.90;;;;;;5067352;28;20067;-77
2022/12/10 09:02:36;;;;;;;19.83;16.27;;;1.70;99.90;;;;;;5066001;28;20024;-78
2022/12/10 09:05:02;;;;;;;22.58;17.35;;;1.70;99.90;;;;;;5071688;28;20024;-78
2022/12/10 09:07:29;;;;;;;19.25;15.77;;;1.70;99.90;;;;;;5065817;28;20476;-77
2022/12/10 09:09:55;;;;;;;21.02;15.02;;;1.70;99.90;;;;;;5061571;28;20496;-78
2022/12/10 09:12:20;;;;;;;20.75;15.25;;;1.70;99.90;;;;;;5070042;28;20040;-77
2022/12/10 09:14:46;;;;;;;17.33;12.95;;;1.60;99.90;;;;;;5075863;28;20052;-78
2022/12/10 09:17:12;;;;;;;15.48;13.07;;;1.60;99.90;;;;;;5063641;28;20032;-78
2022/12/10 09:19:38;;;;;;;14.55;12.65;;;1.60;99.90;;;;;;5074049;28;20031;-77
2022/12/10 09:22:04;;;;;;;17.15;13.52;;;1.60;99.90;;;;;;5063279;28;20500;-79
2022/12/10 09:24:30;;;;;;;14.60;12.77;;;1.60;99.90;;;;;;5071986;28;20017;-77
2022/12/10 09:26:55;;;;;;;16.17;12.85;;;1.70;99.90;;;;;;5063952;28;20067;-79
2022/12/10 09:29:21;;;;;;;18.33;13.60;;;1.70;99.90;;;;;;5063460;28;20474;-77
2022/12/10 09:31:51;;;;;;;18.60;14.32;;;1.70;99.90;;;;;;5070214;28;20036;-78
2022/12/10 09:34:17;;;;;;;19.42;15.43;;;1.60;99.90;;;;;;5063002;28;20104;-78
2022/12/10 09:36:43;;;;;;;24.65;15.40;;;1.70;99.90;;;;;;5060216;28;20060;-78
2022/12/10 09:39:09;;;;;;;22.30;16.30;;;1.70;99.90;;;;;;5060850;28;20033;-78
2022/12/10 09:41:53;;;;;;;13.15;11.35;;;1.70;99.90;;;;;;5070748;28;20029;-78
2022/12/10 09:44:29;;;;;;;14.63;12.18;;;1.70;99.90;;;;;;5065094;28;20074;-76
2022/12/10 09:46:58;;;;;;;14.88;13.02;;;1.80;99.90;;;;;;5069722;28;20052;-77
2022/12/10 09:49:32;;;;;;;18.13;14.80;;;1.70;99.90;;;;;;5063906;28;20453;-78
2022/12/10 09:52:01;;;;;;;18.85;15.77;;;1.70;99.90;;;;;;5066546;28;20063;-79
2022/12/10 09:54:29;;;;;;;18.02;15.50;;;1.80;99.90;;;;;;5060341;28;20093;-79
2022/12/10 09:56:57;;;;;;;23.65;16.23;;;1.80;99.90;;;;;;5064525;28;20025;-80
2022/12/10 09:59:42;;;;;;;17.25;14.05;;;1.90;99.90;;;;;;5074243;28;20170;-79
2022/12/10 10:02:30;;;;;;;14.25;12.57;;;2.00;99.90;;;;;;5068700;28;20108;-82
2022/12/10 10:05:12;;;;;;;17.95;12.57;;;2.00;99.90;;;;;;5074022;28;20024;-81
2022/12/10 10:07:48;;;;;;;20.60;14.18;;;2.00;99.90;;;;;;5070252;28;20024;-78
2022/12/10 10:10:27;;;;;;;17.55;14.80;;;2.00;99.90;;;;;;5071419;28;20031;-78
2022/12/10 10:12:57;;;;;;;16.35;14.13;;;2.00;99.90;;;;;;5068974;28;20031;-78
2022/12/10 10:15:34;;;;;;;21.50;15.63;;;2.10;99.90;;;;;;5063804;28;20400;-80
2022/12/10 10:18:15;;;;;;;18.88;14.95;;;2.10;99.90;;;;;;5068424;28;20032;-78
2022/12/10 10:20:41;;;;;;;18.58;10.85;;;2.10;99.90;;;;;;5067516;28;20051;-77
2022/12/10 10:23:12;;;;;;;16.85;13.18;;;2.10;99.90;;;;;;5062785;28;20026;-83
2022/12/10 10:25:38;;;;;;;16.45;12.95;;;2.30;99.90;;;;;;5059521;28;20056;-78
2022/12/10 10:28:04;;;;;;;18.25;14.77;;;2.30;99.90;;;;;;5061305;28;21049;-76
2022/12/10 10:30:30;;;;;;;15.30;11.15;;;2.30;99.90;;;;;;5071186;28;20033;-76
2022/12/10 10:32:57;;;;;;;14.18;11.27;;;2.30;99.90;;;;;;5071019;28;20090;-76
2022/12/10 10:35:28;;;;;;;15.05;12.80;;;2.30;99.90;;;;;;5075296;28;20024;-77
2022/12/10 10:38:01;;;;;;;17.63;14.13;;;2.30;99.90;;;;;;5069962;28;20094;-75
2022/12/10 10:40:49;;;;;;;16.88;11.73;;;2.40;99.90;;;;;;5073818;28;20035;-75
2022/12/10 10:43:26;;;;;;;13.35;11.15;;;2.50;99.90;;;;;;5072666;28;20167;-74
2022/12/10 10:46:00;;;;;;;17.77;11.32;;;2.60;99.90;;;;;;5069783;28;20077;-76
2022/12/10 10:48:27;;;;;;;21.52;12.40;;;2.60;99.90;;;;;;5073300;28;20100;-75
2022/12/10 10:51:04;;;;;;;16.65;12.85;;;2.70;99.90;;;;;;5070421;28;20538;-75
2022/12/10 10:53:42;;;;;;;13.25;11.80;;;2.80;99.90;;;;;;5072840;28;20021;-74
2022/12/10 10:56:24;;;;;;;19.38;13.88;;;2.80;99.90;;;;;;5068875;28;20082;-77
2022/12/10 10:59:06;;;;;;;20.55;12.80;;;2.60;99.90;;;;;;5070425;28;20021;-76
2022/12/10 11:01:50;;;;;;;12.93;10.57;;;2.50;99.90;;;;;;5073521;28;20437;-75
2022/12/10 11:04:23;;;;;;;14.00;11.38;;;2.40;99.90;;;;;;5071937;28;20496;-75
2022/12/10 11:06:52;;;;;;;17.42;12.88;;;2.30;99.90;;;;;;5069345;28;20025;-75
2022/12/10 11:09:26;;;;;;;21.50;13.27;;;2.30;99.90;;;;;;5069450;28;20045;-75
2022/12/10 11:12:02;;;;;;;16.70;13.30;;;2.40;99.90;;;;;;5070070;28;20028;-75
2022/12/10 11:14:45;;;;;;;17.67;13.95;;;2.60;99.90;;;;;;5074374;28;20099;-75
2022/12/10 11:17:12;;;;;;;20.17;14.48;;;2.60;99.90;;;;;;5065773;28;20512;-76
2022/12/10 11:20:13;;;;;;;16.48;13.63;;;2.70;99.90;;;;;;5068276;28;20519;-77
2022/12/10 11:22:55;;;;;;;14.07;12.63;;;2.60;99.90;;;;;;5065893;28;20020;-76
2022/12/10 11:25:44;;;;;;;17.95;13.93;;;2.40;99.90;;;;;;5071458;28;20500;-76
2022/12/10 11:28:22;;;;;;;19.67;14.13;;;2.50;99.90;;;;;;5064226;28;20104;-77
2022/12/10 11:31:03;;;;;;;15.52;11.68;;;2.60;99.90;;;;;;5075479;28;20035;-76
2022/12/10 11:33:53;;;;;;;;;;;2.60;99.90;;;;;;5069683;28;20028;-75
2022/12/10 11:36:37;;;;;;;15.48;13.05;;;2.60;99.90;;;;;;5070684;28;20075;-76
2022/12/10 11:39:25;;;;;;;16.10;12.35;;;2.60;99.90;;;;;;5071814;28;20039;-75
2022/12/10 11:42:16;;;;;;;15.52;12.70;;;2.70;99.90;;;;;;5073863;28;20028;-75
2022/12/10 11:45:13;;;;;;;15.88;13.23;;;2.80;99.90;;;;;;5068365;28;20024;-75
2022/12/10 11:47:54;;;;;;;11.75;10.02;;;2.90;99.90;;;;;;5068284;28;20474;-76
2022/12/10 11:50:39;;;;;;;16.00;13.52;;;2.90;99.90;;;;;;5073768;28;20028;-76
2022/12/10 11:53:16;;;;;;;15.23;12.85;;;3.00;99.90;;;;;;5072685;28;20032;-77
2022/12/10 11:55:48;;;;;;;15.23;10.80;;;3.00;99.90;;;;;;5076431;28;20025;-74
2022/12/10 11:58:27;;;;;;;14.18;10.45;;;2.90;99.90;;;;;;5075002;28;20040;-76
2022/12/10 12:00:57;;;;;;;14.38;12.80;;;2.90;99.90;;;;;;5076231;28;20111;-76
2022/12/10 12:03:38;;;;;;;;;;;2.90;99.90;;;;;;5077563;28;20024;-76
2022/12/10 12:06:11;;;;;;;;;;;3.00;99.90;;;;;;5073666;28;19908;-76
2022/12/10 12:08:42;;;;;;;20.55;11.75;;;3.00;99.90;;;;;;5076039;28;20284;-77
2022/12/10 12:11:27;;;;;;;11.98;9.75;;;3.00;99.90;;;;;;5076329;28;20047;-75
2022/12/10 12:14:34;;;;;;;17.38;13.55;;;2.90;99.90;;;;;;5074945;28;20029;-76
2022/12/10 12:17:24;;;;;;;23.20;15.75;;;2.90;99.90;;;;;;5068853;28;20044;-76
2022/12/10 12:19:57;;;;;;;22.48;14.65;;;3.00;99.90;;;;;;5074200;28;20431;-77
2022/12/10 12:22:27;;;;;;;16.10;13.52;;;3.10;99.90;;;;;;5072646;28;20029;-76
2022/12/10 12:25:02;;;;;;;15.25;11.40;;;3.20;99.90;;;;;;5073562;28;20062;-76
2022/12/10 12:27:53;;;;;;;18.27;14.27;;;3.30;99.90;;;;;;5075337;28;20033;-76
2022/12/10 12:30:21;;;;;;;14.48;11.98;;;3.30;99.90;;;;;;5075996;28;20023;-76
2022/12/10 12:33:02;;;;;;;12.13;10.30;;;3.30;99.90;;;;;;5072112;28;20060;-75
2022/12/10 12:35:48;;;;;;;15.73;12.70;;;3.20;99.90;;;;;;5075094;28;20102;-77
2022/12/10 12:38:30;;;;;;;11.00;9.95;;;3.20;99.90;;;;;;5073021;28;20047;-76
2022/12/10 12:41:03;;;;;;;12.73;10.23;;;3.20;99.90;;;;;;5068303;28;20013;-78
2022/12/10 12:44:00;;;;;;;19.38;12.15;;;3.20;99.90;;;;;;5074676;28;20029;-77
2022/12/10 12:46:47;;;;;;;16.23;11.38;;;3.20;99.90;;;;;;5076130;28;20028;-77
2022/12/10 12:49:34;;;;;;;19.73;13.07;;;3.30;99.90;;;;;;5074843;28;20247;-77
2022/12/10 12:52:20;;;;;;;13.15;10.18;;;3.30;99.90;;;;;;5070422;28;20388;-77
2022/12/10 12:54:46;;;;;;;11.50;9.85;;;3.30;99.90;;;;;;5069941;28;20025;-76
2022/12/10 12:57:41;;;;;;;11.93;10.35;;;3.30;99.90;;;;;;5072380;28;20032;-76
2022/12/10 13:00:18;;;;;;;12.15;9.88;;;3.30;99.90;;;;;;5073115;28;20050;-76
2022/12/10 13:03:05;;;;;;;13.95;10.82;;;3.30;99.90;;;;;;5069906;28;20017;-77
2022/12/10 13:05:35;;;;;;;10.43;7.63;;;3.30;99.90;;;;;;5073875;28;20051;-76
2022/12/10 13:08:19;;;;;;;9.63;8.70;;;3.30;99.90;;;;;;5066812;28;20021;-77